sensor_id;sensor_type;location;lat;lon;timestamp;P1;durP1;ratioP1;P2;durP2;ratioP2
12758;SDS011;20944;47.048;15.390;2022-08-01T00:00:08;2.60;;;2.40;;
12758;SDS011;20944;47.048;15.390;2022-08-01T00:02:38;2.40;;;2.30;;
12758;SDS011;20944;47.048;15.390;2022-08-01T00:05:07;3.22;;;2.17;;
12758;SDS011;20944;47.048;15.390;2022-08-01T00:07:37;2.20;;;2.10;;
12758;SDS011;20944;47.048;15.390;2022-08-01T00:10:07;2.10;;;2.00;;
12758;SDS011;20944;47.048;15.390;2022-08-01T00:12:37;2.65;;;2.45;;
12758;SDS011;20944;47.048;15.390;2022-08-01T00:15:06;2.55;;;2.33;;
12758;SDS011;20944;47.048;15.390;2022-08-01T00:17:38;2.00;;;1.90;;
12758;SDS011;20944;47.048;15.390;2022-08-01T00:20:08;2.13;;;2.03;;
12758;SDS011;20944;47.048;15.390;2022-08-01T00:22:38;3.15;;;1.70;;
12758;SDS011;20944;47.048;15.390;2022-08-01T00:25:07;3.13;;;1.98;;
12758;SDS011;20944;47.048;15.390;2022-08-01T00:27:35;2.05;;;1.95;;
12758;SDS011;20944;47.048;15.390;2022-08-01T00:30:04;2.47;;;2.08;;
12758;SDS011;20944;47.048;15.390;2022-08-01T00:32:39;2.20;;;2.05;;
12758;SDS011;20944;47.048;15.390;2022-08-01T00:35:07;1.63;;;1.52;;
12758;SDS011;20944;47.048;15.390;2022-08-01T00:37:36;2.42;;;2.22;;
12758;SDS011;20944;47.048;15.390;2022-08-01T00:40:08;2.00;;;1.80;;
12758;SDS011;20944;47.048;15.390;2022-08-01T00:42:37;2.50;;;2.30;;
12758;SDS011;20944;47.048;15.390;2022-08-01T00:45:09;2.72;;;2.28;;
12758;SDS011;20944;47.048;15.390;2022-08-01T00:47:38;2.15;;;2.00;;
12758;SDS011;20944;47.048;15.390;2022-08-01T00:50:08;2.00;;;1.90;;
12758;SDS011;20944;47.048;15.390;2022-08-01T00:52:37;1.58;;;1.48;;
12758;SDS011;20944;47.048;15.390;2022-08-01T00:55:08;1.63;;;1.52;;
12758;SDS011;20944;47.048;15.390;2022-08-01T00:57:40;1.85;;;1.75;;
12758;SDS011;20944;47.048;15.390;2022-08-01T01:00:29;1.83;;;1.73;;
12758;SDS011;20944;47.048;15.390;2022-08-01T01:03:20;2.05;;;1.95;;
12758;SDS011;20944;47.048;15.390;2022-08-01T01:06:13;2.03;;;1.75;;
12758;SDS011;20944;47.048;15.390;2022-08-01T01:08:50;2.20;;;1.65;;
12758;SDS011;20944;47.048;15.390;2022-08-01T01:11:31;1.70;;;1.60;;
12758;SDS011;20944;47.048;15.390;2022-08-01T01:14:04;2.00;;;1.90;;
12758;SDS011;20944;47.048;15.390;2022-08-01T01:16:37;2.13;;;2.03;;
12758;SDS011;20944;47.048;15.390;2022-08-01T01:19:10;2.15;;;2.05;;
12758;SDS011;20944;47.048;15.390;2022-08-01T01:21:50;2.33;;;2.13;;
12758;SDS011;20944;47.048;15.390;2022-08-01T01:24:31;2.60;;;1.73;;
12758;SDS011;20944;47.048;15.390;2022-08-01T01:27:06;1.90;;;1.80;;
12758;SDS011;20944;47.048;15.390;2022-08-01T01:29:48;2.33;;;2.10;;
12758;SDS011;20944;47.048;15.390;2022-08-01T01:32:28;1.88;;;1.77;;
12758;SDS011;20944;47.048;15.390;2022-08-01T01:35:00;2.05;;;1.73;;
12758;SDS011;20944;47.048;15.390;2022-08-01T01:37:33;1.60;;;1.50;;
12758;SDS011;20944;47.048;15.390;2022-08-01T01:40:05;1.67;;;1.58;;
12758;SDS011;20944;47.048;15.390;2022-08-01T01:42:37;1.50;;;1.40;;
12758;SDS011;20944;47.048;15.390;2022-08-01T01:45:09;2.90;;;1.73;;
12758;SDS011;20944;47.048;15.390;2022-08-01T01:47:38;1.67;;;1.60;;
12758;SDS011;20944;47.048;15.390;2022-08-01T01:50:08;1.70;;;1.60;;
12758;SDS011;20944;47.048;15.390;2022-08-01T01:52:39;1.90;;;1.80;;
12758;SDS011;20944;47.048;15.390;2022-08-01T01:55:09;2.58;;;2.08;;
12758;SDS011;20944;47.048;15.390;2022-08-01T01:57:40;2.60;;;2.40;;
12758;SDS011;20944;47.048;15.390;2022-08-01T02:00:12;2.80;;;2.53;;
12758;SDS011;20944;47.048;15.390;2022-08-01T02:02:43;2.17;;;1.98;;
12758;SDS011;20944;47.048;15.390;2022-08-01T02:05:13;2.05;;;1.95;;
12758;SDS011;20944;47.048;15.390;2022-08-01T02:07:42;2.13;;;2.03;;
12758;SDS011;20944;47.048;15.390;2022-08-01T02:10:14;2.10;;;1.90;;
12758;SDS011;20944;47.048;15.390;2022-08-01T02:12:53;1.55;;;1.52;;
12758;SDS011;20944;47.048;15.390;2022-08-01T02:15:24;2.20;;;2.00;;
12758;SDS011;20944;47.048;15.390;2022-08-01T02:17:55;2.00;;;1.90;;
12758;SDS011;20944;47.048;15.390;2022-08-01T02:20:24;2.17;;;2.08;;
12758;SDS011;20944;47.048;15.390;2022-08-01T02:22:57;2.30;;;2.10;;
12758;SDS011;20944;47.048;15.390;2022-08-01T02:25:35;2.13;;;2.03;;
12758;SDS011;20944;47.048;15.390;2022-08-01T02:28:28;2.95;;;2.53;;
12758;SDS011;20944;47.048;15.390;2022-08-01T02:31:05;2.95;;;2.15;;
12758;SDS011;20944;47.048;15.390;2022-08-01T02:33:38;2.35;;;2.25;;
12758;SDS011;20944;47.048;15.390;2022-08-01T02:36:09;2.10;;;2.00;;
12758;SDS011;20944;47.048;15.390;2022-08-01T02:38:59;2.15;;;2.03;;
12758;SDS011;20944;47.048;15.390;2022-08-01T02:41:30;2.60;;;2.40;;
12758;SDS011;20944;47.048;15.390;2022-08-01T02:44:02;2.00;;;1.90;;
12758;SDS011;20944;47.048;15.390;2022-08-01T02:46:36;3.15;;;2.45;;
12758;SDS011;20944;47.048;15.390;2022-08-01T02:49:07;3.83;;;2.22;;
12758;SDS011;20944;47.048;15.390;2022-08-01T02:51:38;2.85;;;1.95;;
12758;SDS011;20944;47.048;15.390;2022-08-01T02:54:08;2.22;;;2.05;;
12758;SDS011;20944;47.048;15.390;2022-08-01T02:56:38;2.63;;;2.40;;
12758;SDS011;20944;47.048;15.390;2022-08-01T02:59:10;2.25;;;2.05;;
12758;SDS011;20944;47.048;15.390;2022-08-01T03:01:47;4.20;;;2.42;;
12758;SDS011;20944;47.048;15.390;2022-08-01T03:04:20;2.50;;;2.30;;
12758;SDS011;20944;47.048;15.390;2022-08-01T03:06:51;2.42;;;2.20;;
12758;SDS011;20944;47.048;15.390;2022-08-01T03:09:21;2.80;;;2.22;;
12758;SDS011;20944;47.048;15.390;2022-08-01T03:11:50;2.97;;;2.33;;
12758;SDS011;20944;47.048;15.390;2022-08-01T03:14:20;2.60;;;2.40;;
12758;SDS011;20944;47.048;15.390;2022-08-01T03:16:52;2.28;;;2.00;;
12758;SDS011;20944;47.048;15.390;2022-08-01T03:19:22;2.65;;;2.45;;
12758;SDS011;20944;47.048;15.390;2022-08-01T03:21:54;3.53;;;2.50;;
12758;SDS011;20944;47.048;15.390;2022-08-01T03:24:25;3.08;;;2.78;;
12758;SDS011;20944;47.048;15.390;2022-08-01T03:26:54;2.53;;;2.33;;
12758;SDS011;20944;47.048;15.390;2022-08-01T03:29:26;2.50;;;2.30;;
12758;SDS011;20944;47.048;15.390;2022-08-01T03:31:57;2.83;;;2.63;;
12758;SDS011;20944;47.048;15.390;2022-08-01T03:34:27;2.53;;;2.38;;
12758;SDS011;20944;47.048;15.390;2022-08-01T03:36:58;3.10;;;2.80;;
12758;SDS011;20944;47.048;15.390;2022-08-01T03:39:31;3.88;;;2.53;;
12758;SDS011;20944;47.048;15.390;2022-08-01T03:42:07;2.72;;;2.53;;
12758;SDS011;20944;47.048;15.390;2022-08-01T03:44:40;2.72;;;2.53;;
12758;SDS011;20944;47.048;15.390;2022-08-01T03:47:10;2.90;;;2.70;;
12758;SDS011;20944;47.048;15.390;2022-08-01T03:49:42;2.75;;;2.55;;
12758;SDS011;20944;47.048;15.390;2022-08-01T03:52:11;2.70;;;2.20;;
12758;SDS011;20944;47.048;15.390;2022-08-01T03:54:43;2.47;;;2.22;;
12758;SDS011;20944;47.048;15.390;2022-08-01T03:57:15;2.50;;;2.30;;
12758;SDS011;20944;47.048;15.390;2022-08-01T04:00:03;2.67;;;2.47;;
12758;SDS011;20944;47.048;15.390;2022-08-01T04:02:37;2.38;;;2.28;;
12758;SDS011;20944;47.048;15.390;2022-08-01T04:05:06;4.15;;;2.75;;
12758;SDS011;20944;47.048;15.390;2022-08-01T04:07:35;3.10;;;2.25;;
12758;SDS011;20944;47.048;15.390;2022-08-01T04:10:05;2.40;;;2.20;;
12758;SDS011;20944;47.048;15.390;2022-08-01T04:12:34;3.00;;;2.28;;
12758;SDS011;20944;47.048;15.390;2022-08-01T04:15:03;2.17;;;2.08;;
12758;SDS011;20944;47.048;15.390;2022-08-01T04:17:32;4.97;;;2.30;;
12758;SDS011;20944;47.048;15.390;2022-08-01T04:20:02;3.65;;;2.33;;
12758;SDS011;20944;47.048;15.390;2022-08-01T04:22:30;4.40;;;2.78;;
12758;SDS011;20944;47.048;15.390;2022-08-01T04:25:03;2.65;;;2.45;;
12758;SDS011;20944;47.048;15.390;2022-08-01T04:27:37;2.33;;;2.13;;
12758;SDS011;20944;47.048;15.390;2022-08-01T04:30:17;2.58;;;2.38;;
12758;SDS011;20944;47.048;15.390;2022-08-01T04:32:48;3.25;;;2.83;;
12758;SDS011;20944;47.048;15.390;2022-08-01T04:35:20;2.50;;;2.20;;
12758;SDS011;20944;47.048;15.390;2022-08-01T04:38:09;2.67;;;2.10;;
12758;SDS011;20944;47.048;15.390;2022-08-01T04:40:40;2.75;;;2.35;;
12758;SDS011;20944;47.048;15.390;2022-08-01T04:43:10;2.70;;;2.50;;
12758;SDS011;20944;47.048;15.390;2022-08-01T04:45:40;2.95;;;2.65;;
12758;SDS011;20944;47.048;15.390;2022-08-01T04:48:11;2.80;;;2.60;;
12758;SDS011;20944;47.048;15.390;2022-08-01T04:50:44;2.30;;;2.17;;
12758;SDS011;20944;47.048;15.390;2022-08-01T04:53:13;2.50;;;2.40;;
12758;SDS011;20944;47.048;15.390;2022-08-01T04:55:44;2.58;;;2.45;;
12758;SDS011;20944;47.048;15.390;2022-08-01T04:58:13;3.20;;;2.85;;
12758;SDS011;20944;47.048;15.390;2022-08-01T05:00:44;2.88;;;2.33;;
12758;SDS011;20944;47.048;15.390;2022-08-01T05:03:13;2.40;;;2.20;;
12758;SDS011;20944;47.048;15.390;2022-08-01T05:05:41;2.65;;;2.55;;
12758;SDS011;20944;47.048;15.390;2022-08-01T05:08:11;4.35;;;3.33;;
12758;SDS011;20944;47.048;15.390;2022-08-01T05:10:39;2.55;;;2.35;;
12758;SDS011;20944;47.048;15.390;2022-08-01T05:13:07;3.42;;;2.97;;
12758;SDS011;20944;47.048;15.390;2022-08-01T05:15:36;3.85;;;2.50;;
12758;SDS011;20944;47.048;15.390;2022-08-01T05:18:04;2.78;;;2.58;;
12758;SDS011;20944;47.048;15.390;2022-08-01T05:20:34;3.20;;;2.90;;
12758;SDS011;20944;47.048;15.390;2022-08-01T05:23:02;2.72;;;2.53;;
12758;SDS011;20944;47.048;15.390;2022-08-01T05:25:32;2.70;;;2.55;;
12758;SDS011;20944;47.048;15.390;2022-08-01T05:28:20;3.33;;;3.13;;
12758;SDS011;20944;47.048;15.390;2022-08-01T05:30:48;6.75;;;2.67;;
12758;SDS011;20944;47.048;15.390;2022-08-01T05:33:17;3.42;;;2.47;;
12758;SDS011;20944;47.048;15.390;2022-08-01T05:35:47;3.38;;;3.17;;
12758;SDS011;20944;47.048;15.390;2022-08-01T05:38:15;4.93;;;3.00;;
12758;SDS011;20944;47.048;15.390;2022-08-01T05:40:45;4.90;;;2.97;;
12758;SDS011;20944;47.048;15.390;2022-08-01T05:43:13;4.22;;;2.78;;
12758;SDS011;20944;47.048;15.390;2022-08-01T05:45:41;4.25;;;3.15;;
12758;SDS011;20944;47.048;15.390;2022-08-01T05:48:11;4.97;;;3.70;;
12758;SDS011;20944;47.048;15.390;2022-08-01T05:50:39;3.60;;;2.80;;
12758;SDS011;20944;47.048;15.390;2022-08-01T05:53:07;3.65;;;3.17;;
12758;SDS011;20944;47.048;15.390;2022-08-01T05:55:35;3.67;;;3.25;;
12758;SDS011;20944;47.048;15.390;2022-08-01T05:58:05;5.68;;;2.88;;
12758;SDS011;20944;47.048;15.390;2022-08-01T06:00:38;3.78;;;3.47;;
12758;SDS011;20944;47.048;15.390;2022-08-01T06:03:06;3.75;;;3.40;;
12758;SDS011;20944;47.048;15.390;2022-08-01T06:05:34;4.35;;;3.38;;
12758;SDS011;20944;47.048;15.390;2022-08-01T06:08:03;3.28;;;2.97;;
12758;SDS011;20944;47.048;15.390;2022-08-01T06:10:31;4.57;;;3.45;;
12758;SDS011;20944;47.048;15.390;2022-08-01T06:12:59;4.53;;;3.28;;
12758;SDS011;20944;47.048;15.390;2022-08-01T06:15:31;4.65;;;3.10;;
12758;SDS011;20944;47.048;15.390;2022-08-01T06:18:00;3.80;;;3.28;;
12758;SDS011;20944;47.048;15.390;2022-08-01T06:20:28;3.83;;;3.47;;
12758;SDS011;20944;47.048;15.390;2022-08-01T06:22:57;3.28;;;2.97;;
12758;SDS011;20944;47.048;15.390;2022-08-01T06:25:27;6.63;;;3.42;;
12758;SDS011;20944;47.048;15.390;2022-08-01T06:27:56;4.03;;;2.75;;
12758;SDS011;20944;47.048;15.390;2022-08-01T06:30:24;4.38;;;3.20;;
12758;SDS011;20944;47.048;15.390;2022-08-01T06:32:55;5.13;;;3.58;;
12758;SDS011;20944;47.048;15.390;2022-08-01T06:35:25;6.70;;;3.80;;
12758;SDS011;20944;47.048;15.390;2022-08-01T06:37:54;4.18;;;3.60;;
12758;SDS011;20944;47.048;15.390;2022-08-01T06:40:23;3.30;;;3.00;;
12758;SDS011;20944;47.048;15.390;2022-08-01T06:42:51;5.90;;;3.78;;
12758;SDS011;20944;47.048;15.390;2022-08-01T06:45:20;3.88;;;3.47;;
12758;SDS011;20944;47.048;15.390;2022-08-01T06:47:51;3.30;;;3.03;;
12758;SDS011;20944;47.048;15.390;2022-08-01T06:50:20;3.60;;;2.95;;
12758;SDS011;20944;47.048;15.390;2022-08-01T06:52:49;3.65;;;3.30;;
12758;SDS011;20944;47.048;15.390;2022-08-01T06:55:17;3.45;;;2.88;;
12758;SDS011;20944;47.048;15.390;2022-08-01T06:57:46;4.68;;;3.42;;
12758;SDS011;20944;47.048;15.390;2022-08-01T07:00:16;5.93;;;3.85;;
12758;SDS011;20944;47.048;15.390;2022-08-01T07:02:49;5.90;;;4.05;;
12758;SDS011;20944;47.048;15.390;2022-08-01T07:05:18;4.57;;;3.50;;
12758;SDS011;20944;47.048;15.390;2022-08-01T07:07:48;2.75;;;2.58;;
12758;SDS011;20944;47.048;15.390;2022-08-01T07:10:16;4.00;;;3.70;;
12758;SDS011;20944;47.048;15.390;2022-08-01T07:12:45;4.00;;;3.70;;
12758;SDS011;20944;47.048;15.390;2022-08-01T07:15:13;3.22;;;3.03;;
12758;SDS011;20944;47.048;15.390;2022-08-01T07:17:42;3.28;;;3.08;;
12758;SDS011;20944;47.048;15.390;2022-08-01T07:20:11;3.70;;;3.35;;
12758;SDS011;20944;47.048;15.390;2022-08-01T07:22:41;4.30;;;3.38;;
12758;SDS011;20944;47.048;15.390;2022-08-01T07:25:14;3.90;;;2.97;;
12758;SDS011;20944;47.048;15.390;2022-08-01T07:27:43;5.35;;;3.20;;
12758;SDS011;20944;47.048;15.390;2022-08-01T07:30:11;3.40;;;2.58;;
12758;SDS011;20944;47.048;15.390;2022-08-01T07:32:40;6.00;;;3.25;;
12758;SDS011;20944;47.048;15.390;2022-08-01T07:35:08;3.05;;;2.85;;
12758;SDS011;20944;47.048;15.390;2022-08-01T07:37:37;3.33;;;2.85;;
12758;SDS011;20944;47.048;15.390;2022-08-01T07:40:16;3.03;;;2.65;;
12758;SDS011;20944;47.048;15.390;2022-08-01T07:42:45;3.35;;;3.00;;
12758;SDS011;20944;47.048;15.390;2022-08-01T07:45:14;6.45;;;3.15;;
12758;SDS011;20944;47.048;15.390;2022-08-01T07:47:43;4.45;;;3.00;;
12758;SDS011;20944;47.048;15.390;2022-08-01T07:50:11;2.97;;;2.67;;
12758;SDS011;20944;47.048;15.390;2022-08-01T07:52:40;4.43;;;3.10;;
12758;SDS011;20944;47.048;15.390;2022-08-01T07:55:09;3.30;;;2.90;;
12758;SDS011;20944;47.048;15.390;2022-08-01T07:57:43;3.20;;;2.90;;
12758;SDS011;20944;47.048;15.390;2022-08-01T08:00:12;5.22;;;2.90;;
12758;SDS011;20944;47.048;15.390;2022-08-01T08:02:40;3.13;;;2.90;;
12758;SDS011;20944;47.048;15.390;2022-08-01T08:05:10;2.95;;;2.72;;
12758;SDS011;20944;47.048;15.390;2022-08-01T08:07:39;2.97;;;2.72;;
12758;SDS011;20944;47.048;15.390;2022-08-01T08:10:07;2.90;;;2.60;;
12758;SDS011;20944;47.048;15.390;2022-08-01T08:12:36;3.90;;;2.90;;
12758;SDS011;20944;47.048;15.390;2022-08-01T08:15:06;3.75;;;3.30;;
12758;SDS011;20944;47.048;15.390;2022-08-01T08:17:35;8.38;;;3.75;;
12758;SDS011;20944;47.048;15.390;2022-08-01T08:20:04;3.40;;;3.17;;
12758;SDS011;20944;47.048;15.390;2022-08-01T08:22:34;9.43;;;3.42;;
12758;SDS011;20944;47.048;15.390;2022-08-01T08:25:03;3.65;;;3.35;;
12758;SDS011;20944;47.048;15.390;2022-08-01T08:27:33;6.38;;;3.13;;
12758;SDS011;20944;47.048;15.390;2022-08-01T08:30:04;4.18;;;3.03;;
12758;SDS011;20944;47.048;15.390;2022-08-01T08:32:35;6.47;;;3.08;;
12758;SDS011;20944;47.048;15.390;2022-08-01T08:35:04;3.63;;;3.05;;
12758;SDS011;20944;47.048;15.390;2022-08-01T08:37:37;5.38;;;3.05;;
12758;SDS011;20944;47.048;15.390;2022-08-01T08:40:14;4.35;;;3.20;;
12758;SDS011;20944;47.048;15.390;2022-08-01T08:42:43;5.30;;;2.97;;
12758;SDS011;20944;47.048;15.390;2022-08-01T08:45:14;3.45;;;3.15;;
12758;SDS011;20944;47.048;15.390;2022-08-01T08:47:43;3.47;;;2.90;;
12758;SDS011;20944;47.048;15.390;2022-08-01T08:50:13;2.63;;;2.47;;
12758;SDS011;20944;47.048;15.390;2022-08-01T08:52:42;3.17;;;2.50;;
12758;SDS011;20944;47.048;15.390;2022-08-01T08:55:12;2.42;;;2.22;;
12758;SDS011;20944;47.048;15.390;2022-08-01T08:57:42;4.00;;;2.70;;
12758;SDS011;20944;47.048;15.390;2022-08-01T09:00:12;2.65;;;2.45;;
12758;SDS011;20944;47.048;15.390;2022-08-01T09:02:43;2.05;;;1.95;;
12758;SDS011;20944;47.048;15.390;2022-08-01T09:05:13;3.85;;;2.70;;
12758;SDS011;20944;47.048;15.390;2022-08-01T09:07:45;2.83;;;2.63;;
12758;SDS011;20944;47.048;15.390;2022-08-01T09:10:13;9.40;;;2.72;;
12758;SDS011;20944;47.048;15.390;2022-08-01T09:15:39;3.67;;;2.65;;
12758;SDS011;20944;47.048;15.390;2022-08-01T09:18:08;3.17;;;2.58;;
12758;SDS011;20944;47.048;15.390;2022-08-01T09:21:06;4.57;;;2.95;;
12758;SDS011;20944;47.048;15.390;2022-08-01T09:23:41;3.13;;;2.45;;
12758;SDS011;20944;47.048;15.390;2022-08-01T09:26:20;2.92;;;2.13;;
12758;SDS011;20944;47.048;15.390;2022-08-01T09:28:56;3.47;;;2.75;;
12758;SDS011;20944;47.048;15.390;2022-08-01T09:31:28;3.58;;;2.40;;
12758;SDS011;20944;47.048;15.390;2022-08-01T09:34:05;2.70;;;2.50;;
12758;SDS011;20944;47.048;15.390;2022-08-01T09:36:44;2.30;;;2.20;;
12758;SDS011;20944;47.048;15.390;2022-08-01T09:39:21;5.80;;;2.50;;
12758;SDS011;20944;47.048;15.390;2022-08-01T09:41:53;4.63;;;2.55;;
12758;SDS011;20944;47.048;15.390;2022-08-01T09:44:36;2.97;;;2.30;;
12758;SDS011;20944;47.048;15.390;2022-08-01T09:47:11;3.08;;;2.13;;
12758;SDS011;20944;47.048;15.390;2022-08-01T09:49:41;2.83;;;1.85;;
12758;SDS011;20944;47.048;15.390;2022-08-01T09:52:18;1.95;;;1.85;;
12758;SDS011;20944;47.048;15.390;2022-08-01T09:54:52;2.55;;;2.13;;
12758;SDS011;20944;47.048;15.390;2022-08-01T09:57:22;4.20;;;1.98;;
12758;SDS011;20944;47.048;15.390;2022-08-01T09:59:51;2.15;;;2.03;;
12758;SDS011;20944;47.048;15.390;2022-08-01T10:02:30;2.22;;;1.92;;
12758;SDS011;20944;47.048;15.390;2022-08-01T10:04:59;2.13;;;2.03;;
12758;SDS011;20944;47.048;15.390;2022-08-01T10:07:34;2.15;;;2.05;;
12758;SDS011;20944;47.048;15.390;2022-08-01T10:10:10;2.05;;;1.88;;
12758;SDS011;20944;47.048;15.390;2022-08-01T10:12:40;2.08;;;1.92;;
12758;SDS011;20944;47.048;15.390;2022-08-01T10:15:11;4.85;;;2.10;;
12758;SDS011;20944;47.048;15.390;2022-08-01T10:17:46;2.42;;;2.28;;
12758;SDS011;20944;47.048;15.390;2022-08-01T10:20:23;3.85;;;2.03;;
12758;SDS011;20944;47.048;15.390;2022-08-01T10:22:58;2.58;;;2.28;;
12758;SDS011;20944;47.048;15.390;2022-08-01T10:25:34;1.95;;;1.85;;
12758;SDS011;20944;47.048;15.390;2022-08-01T10:28:10;2.47;;;2.25;;
12758;SDS011;20944;47.048;15.390;2022-08-01T10:30:49;2.28;;;1.95;;
12758;SDS011;20944;47.048;15.390;2022-08-01T10:33:22;1.98;;;1.88;;
12758;SDS011;20944;47.048;15.390;2022-08-01T10:36:11;3.08;;;2.00;;
12758;SDS011;20944;47.048;15.390;2022-08-01T10:38:42;1.90;;;1.80;;
12758;SDS011;20944;47.048;15.390;2022-08-01T10:41:10;1.70;;;1.70;;
12758;SDS011;20944;47.048;15.390;2022-08-01T10:43:42;1.92;;;1.83;;
12758;SDS011;20944;47.048;15.390;2022-08-01T10:46:12;4.38;;;2.30;;
12758;SDS011;20944;47.048;15.390;2022-08-01T10:48:45;2.22;;;2.13;;
12758;SDS011;20944;47.048;15.390;2022-08-01T10:51:19;1.73;;;1.67;;
12758;SDS011;20944;47.048;15.390;2022-08-01T10:54:10;2.20;;;2.10;;
12758;SDS011;20944;47.048;15.390;2022-08-01T10:56:40;2.30;;;2.20;;
12758;SDS011;20944;47.048;15.390;2022-08-01T10:59:15;2.47;;;2.00;;
12758;SDS011;20944;47.048;15.390;2022-08-01T11:02:09;2.17;;;2.08;;
12758;SDS011;20944;47.048;15.390;2022-08-01T11:04:44;1.85;;;1.85;;
12758;SDS011;20944;47.048;15.390;2022-08-01T11:07:23;1.88;;;1.77;;
12758;SDS011;20944;47.048;15.390;2022-08-01T11:10:04;1.92;;;1.90;;
12758;SDS011;20944;47.048;15.390;2022-08-01T11:12:41;2.25;;;2.05;;
12758;SDS011;20944;47.048;15.390;2022-08-01T11:15:17;2.15;;;2.05;;
12758;SDS011;20944;47.048;15.390;2022-08-01T11:18:00;2.00;;;1.90;;
12758;SDS011;20944;47.048;15.390;2022-08-01T11:20:32;1.83;;;1.83;;
12758;SDS011;20944;47.048;15.390;2022-08-01T11:23:16;2.60;;;2.40;;
12758;SDS011;20944;47.048;15.390;2022-08-01T11:26:09;3.72;;;3.42;;
12758;SDS011;20944;47.048;15.390;2022-08-01T11:29:11;2.90;;;2.70;;
12758;SDS011;20944;47.048;15.390;2022-08-01T11:31:49;2.35;;;2.17;;
12758;SDS011;20944;47.048;15.390;2022-08-01T11:34:18;1.92;;;1.83;;
12758;SDS011;20944;47.048;15.390;2022-08-01T11:36:49;1.98;;;1.88;;
12758;SDS011;20944;47.048;15.390;2022-08-01T11:39:25;2.35;;;2.05;;
12758;SDS011;20944;47.048;15.390;2022-08-01T11:41:55;1.88;;;1.77;;
12758;SDS011;20944;47.048;15.390;2022-08-01T11:44:49;2.00;;;1.90;;
12758;SDS011;20944;47.048;15.390;2022-08-01T11:47:18;2.58;;;2.28;;
12758;SDS011;20944;47.048;15.390;2022-08-01T11:50:31;2.20;;;1.60;;
12758;SDS011;20944;47.048;15.390;2022-08-01T11:53:03;1.75;;;1.75;;
12758;SDS011;20944;47.048;15.390;2022-08-01T11:55:32;2.10;;;1.77;;
12758;SDS011;20944;47.048;15.390;2022-08-01T11:58:03;1.63;;;1.55;;
12758;SDS011;20944;47.048;15.390;2022-08-01T12:00:50;1.85;;;1.75;;
12758;SDS011;20944;47.048;15.390;2022-08-01T12:03:24;1.85;;;1.40;;
12758;SDS011;20944;47.048;15.390;2022-08-01T12:05:59;1.75;;;1.65;;
12758;SDS011;20944;47.048;15.390;2022-08-01T12:08:28;1.90;;;1.80;;
12758;SDS011;20944;47.048;15.390;2022-08-01T12:10:59;2.70;;;1.50;;
12758;SDS011;20944;47.048;15.390;2022-08-01T12:13:39;1.38;;;1.17;;
12758;SDS011;20944;47.048;15.390;2022-08-01T12:16:10;1.08;;;1.08;;
12758;SDS011;20944;47.048;15.390;2022-08-01T12:18:40;1.42;;;1.20;;
12758;SDS011;20944;47.048;15.390;2022-08-01T12:21:10;1.13;;;1.13;;
12758;SDS011;20944;47.048;15.390;2022-08-01T12:23:38;1.90;;;1.40;;
12758;SDS011;20944;47.048;15.390;2022-08-01T12:26:06;1.10;;;1.10;;
12758;SDS011;20944;47.048;15.390;2022-08-01T12:28:55;1.10;;;1.10;;
12758;SDS011;20944;47.048;15.390;2022-08-01T12:31:30;0.90;;;0.90;;
12758;SDS011;20944;47.048;15.390;2022-08-01T12:36:57;0.90;;;0.90;;
12758;SDS011;20944;47.048;15.390;2022-08-01T12:39:30;1.00;;;1.00;;
12758;SDS011;20944;47.048;15.390;2022-08-01T12:41:59;1.05;;;1.05;;
12758;SDS011;20944;47.048;15.390;2022-08-01T12:44:28;1.27;;;1.17;;
12758;SDS011;20944;47.048;15.390;2022-08-01T12:46:58;0.90;;;0.90;;
12758;SDS011;20944;47.048;15.390;2022-08-01T12:49:28;0.88;;;0.88;;
12758;SDS011;20944;47.048;15.390;2022-08-01T12:51:57;0.70;;;0.70;;
12758;SDS011;20944;47.048;15.390;2022-08-01T12:54:26;1.50;;;0.65;;
12758;SDS011;20944;47.048;15.390;2022-08-01T12:56:54;1.00;;;0.95;;
12758;SDS011;20944;47.048;15.390;2022-08-01T12:59:24;0.82;;;0.82;;
12758;SDS011;20944;47.048;15.390;2022-08-01T13:01:54;1.10;;;1.10;;
12758;SDS011;20944;47.048;15.390;2022-08-01T13:04:24;0.90;;;0.90;;
12758;SDS011;20944;47.048;15.390;2022-08-01T13:06:54;0.95;;;0.95;;
12758;SDS011;20944;47.048;15.390;2022-08-01T13:09:23;1.23;;;1.02;;
12758;SDS011;20944;47.048;15.390;2022-08-01T13:11:52;0.80;;;0.80;;
12758;SDS011;20944;47.048;15.390;2022-08-01T13:14:32;0.90;;;0.90;;
12758;SDS011;20944;47.048;15.390;2022-08-01T13:17:07;0.85;;;0.85;;
12758;SDS011;20944;47.048;15.390;2022-08-01T13:19:43;0.95;;;0.68;;
12758;SDS011;20944;47.048;15.390;2022-08-01T13:22:15;1.17;;;1.17;;
12758;SDS011;20944;47.048;15.390;2022-08-01T13:24:43;1.00;;;1.00;;
12758;SDS011;20944;47.048;15.390;2022-08-01T13:27:19;1.48;;;1.10;;
12758;SDS011;20944;47.048;15.390;2022-08-01T13:29:49;0.90;;;0.90;;
12758;SDS011;20944;47.048;15.390;2022-08-01T13:32:20;3.05;;;0.77;;
12758;SDS011;20944;47.048;15.390;2022-08-01T13:35:00;0.70;;;0.70;;
12758;SDS011;20944;47.048;15.390;2022-08-01T13:37:30;0.90;;;0.90;;
12758;SDS011;20944;47.048;15.390;2022-08-01T13:39:59;0.93;;;0.77;;
12758;SDS011;20944;47.048;15.390;2022-08-01T13:42:27;0.88;;;0.88;;
12758;SDS011;20944;47.048;15.390;2022-08-01T13:44:56;0.80;;;0.80;;
12758;SDS011;20944;47.048;15.390;2022-08-01T13:47:25;0.90;;;0.90;;
12758;SDS011;20944;47.048;15.390;2022-08-01T13:49:57;0.98;;;0.95;;
12758;SDS011;20944;47.048;15.390;2022-08-01T13:52:30;2.28;;;1.20;;
12758;SDS011;20944;47.048;15.390;2022-08-01T13:54:59;1.38;;;1.38;;
12758;SDS011;20944;47.048;15.390;2022-08-01T13:57:28;1.00;;;1.00;;
12758;SDS011;20944;47.048;15.390;2022-08-01T14:00:02;0.75;;;0.75;;
12758;SDS011;20944;47.048;15.390;2022-08-01T14:02:32;0.60;;;0.60;;
12758;SDS011;20944;47.048;15.390;2022-08-01T14:05:00;0.82;;;0.82;;
12758;SDS011;20944;47.048;15.390;2022-08-01T14:07:30;0.75;;;0.75;;
12758;SDS011;20944;47.048;15.390;2022-08-01T14:09:59;1.95;;;0.90;;
12758;SDS011;20944;47.048;15.390;2022-08-01T14:12:45;0.90;;;0.90;;
12758;SDS011;20944;47.048;15.390;2022-08-01T14:15:13;0.90;;;0.90;;
12758;SDS011;20944;47.048;15.390;2022-08-01T14:18:02;0.90;;;0.90;;
12758;SDS011;20944;47.048;15.390;2022-08-01T14:20:31;1.00;;;0.82;;
12758;SDS011;20944;47.048;15.390;2022-08-01T14:23:02;0.88;;;0.88;;
12758;SDS011;20944;47.048;15.390;2022-08-01T14:25:34;1.58;;;1.00;;
12758;SDS011;20944;47.048;15.390;2022-08-01T14:28:23;0.80;;;0.80;;
12758;SDS011;20944;47.048;15.390;2022-08-01T14:30:53;1.80;;;1.10;;
12758;SDS011;20944;47.048;15.390;2022-08-01T14:33:23;1.10;;;1.10;;
12758;SDS011;20944;47.048;15.390;2022-08-01T14:35:51;1.00;;;1.00;;
12758;SDS011;20944;47.048;15.390;2022-08-01T14:38:41;2.53;;;1.13;;
12758;SDS011;20944;47.048;15.390;2022-08-01T14:41:12;0.93;;;0.93;;
12758;SDS011;20944;47.048;15.390;2022-08-01T14:43:40;0.90;;;0.90;;
12758;SDS011;20944;47.048;15.390;2022-08-01T14:46:09;1.00;;;1.00;;
12758;SDS011;20944;47.048;15.390;2022-08-01T14:48:39;2.50;;;0.68;;
12758;SDS011;20944;47.048;15.390;2022-08-01T14:51:08;0.75;;;0.75;;
12758;SDS011;20944;47.048;15.390;2022-08-01T14:53:36;0.82;;;0.82;;
12758;SDS011;20944;47.048;15.390;2022-08-01T14:56:09;0.70;;;0.70;;
12758;SDS011;20944;47.048;15.390;2022-08-01T14:58:37;2.15;;;0.85;;
12758;SDS011;20944;47.048;15.390;2022-08-01T15:01:06;0.80;;;0.80;;
12758;SDS011;20944;47.048;15.390;2022-08-01T15:03:34;1.00;;;1.00;;
12758;SDS011;20944;47.048;15.390;2022-08-01T15:06:03;0.88;;;0.88;;
12758;SDS011;20944;47.048;15.390;2022-08-01T15:08:32;0.73;;;0.73;;